Science Garden, Philippines

10:27 PM PHT on October 22, 2014 (GMT +0800)
Loyola Heights | Change Station
CLOSE
Current Station
Personal Weather Station
Location: Quezon City, NCR
Elevation: 187 ft
Nearby Weather Stations

Elev 187 ft 14.64 °N, 121.08 °E | Updated 7 minutes ago

Scattered Clouds
Scattered Clouds
79.2 °F
Feels Like 84 °F
N
0.0
Wind Variable Wind from East

Today
High -- | Low -- °F
--% Chance of Precip.
Yesterday
High -- | Low -- °F
Precip. -- in
5:48 AM 5:32 PM
Waning Crescent, 2% visible
Pressure 29.89 in
Visibility 6.2 miles
Clouds Few 2500 ft
Scattered Clouds 10000 ft
Heat Index 84 °F
Dew Point 77 °F
Humidity 93%
Rainfall 0.00 in
Snow Depth Not available.
UV 0.0 out of 12
Pollen Not available.
Air Quality Not available.
Flu Activity Not available.
METAR RPLL 221400Z 11004KT 080V160 9999 FEW025 SCT100 28/25 Q1012 NOSIG RMK A2988

More Conditions Fewer Conditions

Pressure 29.89 in
Visibility 6.2 miles
Clouds Few 2500 ft
Scattered Clouds 10000 ft
Heat Index 84 °F
Dew Point 77 °F
Humidity 93%
Rainfall 0.00 in
Snow Depth Not available.
UV 0.0 out of 12
Pollen Not available.
Air Quality Not available.
Flu Activity Not available.
METAR RPLL 221400Z 11004KT 080V160 9999 FEW025 SCT100 28/25 Q1012 NOSIG RMK A2988

More Conditions Fewer Conditions

10-Day Weather Forecast

Almanac

Astronomy

Oct. 22, 2014 Rise Set
Actual Time 5:48 AM PHT 5:32 PM PHT
Civil Twilight 5:26 AM PHT 5:53 PM PHT
Nautical Twilight 5:01 AM PHT 6:19 PM PHT
Astronomical Twilight 4:36 AM PHT 6:44 PM PHT
Moon 4:13 AM PHT 4:26 PM PHT
Length of Visible Light 12h 27m
Length of Day
11h 43m
Tomorrow will be 0m 44s shorter.
Waning Crescent, 2% of the Moon is Illuminated
Today
Waning Crescent
Oct 23
New
Oct 30
First Quarter
Nov 6
Full
Nov 14
Last Quarter

Today's Extremes

Country Highs Country Lows

Community

WunderPhotos

Upload Photos

1,763,927 photos uploaded!

WunderBlogs® & News

Nearby

Snow Depth

Not available.

Earthquake Activity

City Distance Mag. Time & Date
No recent earthquake activity has been reported nearby.
Minimum magnitude displayed is 2.5.

Coastal Water Temperatures

Place Temperature
No Stations Reporting

Nearby Weather Stations